Terminal Aerodrome Forecast
Issued by NWS Buffalo, NY

Home | Current Version | Previous Version | Text Only | Print | Product List | Glossary On
Versions: 1 2 3 4 5 6 7 8 9 10 11 12 13 14 15 16 17 18 19 20 21 22 23 24 25 26 27
000
FTUS41 KBUF 272301 AAB
TAFROC
TAF AMD
KROC 272301Z 2723/2818 27008KT P6SM SCT060 BKN250
     FM280030 33008KT P6SM BKN040
     FM280200 23004KT P6SM SCT050
     FM281400 31004KT P6SM BKN250=

USA.gov is the U.S. government's official web portal to all federal, state and local government web resources and services.